Time;durP1;ratioP1;P1;durP2;ratioP2;P2;SDS_P1;SDS_P2;PMS_P1;PMS_P2;Temp;Humidity;BMP_temperature;BMP_pressure;BME280_temperature;BME280_humidity;BME280_pressure;Samples;Min_cycle;Max_cycle;Signal;HPM_P1;HPM_P2
2023/07/05 00:02:07;;;;;;;5.13;4.55;;;;;;;;;;5138903;27;20316;-83
2023/07/05 00:04:36;;;;;;;8.57;5.70;;;;;;;;;;5153667;27;20585;-84
2023/07/05 00:07:03;;;;;;;7.80;5.63;;;;;;;;;;5153834;27;20200;-83
2023/07/05 00:09:29;;;;;;;8.48;5.55;;;;;;;;;;5153363;27;20444;-84
2023/07/05 00:11:57;;;;;;;6.07;5.50;;;;;;;;;;5152869;27;20299;-84
2023/07/05 00:14:24;;;;;;;8.48;5.60;;;;;;;;;;5153664;27;20902;-85
2023/07/05 00:16:51;;;;;;;6.93;5.28;;;;;;;;;;5153638;27;20219;-85
2023/07/05 00:19:17;;;;;;;5.95;5.45;;;;;;;;;;5153654;27;20675;-85
2023/07/05 00:21:44;;;;;;;5.75;4.85;;;;;;;;;;5153813;27;20204;-84
2023/07/05 00:24:11;;;;;;;5.68;4.68;;;;;;;;;;5153788;27;20200;-85
2023/07/05 00:26:38;;;;;;;9.07;6.18;;;;;;;;;;5152674;27;20204;-83
2023/07/05 00:29:06;;;;;;;5.38;4.82;;;;;;;;;;5152610;27;20224;-84
2023/07/05 00:31:33;;;;;;;8.77;5.28;;;;;;;;;;5152562;27;20707;-83
2023/07/05 00:33:59;;;;;;;6.53;5.10;;;;;;;;;;5152310;27;20694;-84
2023/07/05 00:36:26;;;;;;;9.65;5.53;;;;;;;;;;5152979;27;20204;-83
2023/07/05 00:38:53;;;;;;;5.35;4.95;;;;;;;;;;5152263;27;20307;-83
2023/07/05 00:41:20;;;;;;;6.40;5.63;;;;;;;;;;5152382;27;20197;-83
2023/07/05 00:43:48;;;;;;;6.65;5.93;;;;;;;;;;5153158;27;20260;-84
2023/07/05 00:46:18;;;;;;;7.50;5.32;;;;;;;;;;5152018;27;20554;-82
2023/07/05 00:48:48;;;;;;;7.00;5.68;;;;;;;;;;5151663;27;20196;-83
2023/07/05 00:51:17;;;;;;;7.43;5.10;;;;;;;;;;5152066;27;20260;-84
2023/07/05 00:53:44;;;;;;;8.07;5.28;;;;;;;;;;5151889;27;20594;-84
2023/07/05 00:56:26;;;;;;;7.38;5.78;;;;;;;;;;5152466;27;20207;-83
2023/07/05 00:58:53;;;;;;;6.28;5.68;;;;;;;;;;5152475;27;20597;-85
2023/07/05 01:01:21;;;;;;;8.07;6.10;;;;;;;;;;5152713;27;20192;-84
2023/07/05 01:03:50;;;;;;;6.45;5.82;;;;;;;;;;5152124;27;20233;-83
2023/07/05 01:06:17;;;;;;;6.53;5.60;;;;;;;;;;5153022;27;20195;-83
2023/07/05 01:08:44;;;;;;;5.18;4.78;;;;;;;;;;5151689;27;20203;-83
2023/07/05 01:11:16;;;;;;;9.35;5.88;;;;;;;;;;5151672;27;20381;-83
2023/07/05 01:13:46;;;;;;;7.82;5.85;;;;;;;;;;5152516;27;20279;-83
2023/07/05 01:16:23;;;;;;;10.05;6.07;;;;;;;;;;5151551;27;20223;-84
2023/07/05 01:18:53;;;;;;;5.75;5.25;;;;;;;;;;5152027;27;20236;-84
2023/07/05 01:21:23;;;;;;;7.28;5.50;;;;;;;;;;5151897;27;20275;-84
2023/07/05 01:24:04;;;;;;;7.88;5.85;;;;;;;;;;5151667;27;20200;-83
2023/07/05 01:26:46;;;;;;;7.63;5.60;;;;;;;;;;5152019;27;20732;-82
2023/07/05 01:29:34;;;;;;;6.78;6.10;;;;;;;;;;5152010;27;20207;-84
2023/07/05 01:32:07;;;;;;;11.13;6.10;;;;;;;;;;5145032;27;20200;-83
2023/07/05 01:34:39;;;;;;;6.63;5.63;;;;;;;;;;5151756;27;20184;-83
2023/07/05 01:37:06;;;;;;;9.52;6.28;;;;;;;;;;5151048;27;20196;-85
2023/07/05 01:39:33;;;;;;;6.70;5.97;;;;;;;;;;5151538;27;20256;-84
2023/07/05 01:42:00;;;;;;;6.40;5.40;;;;;;;;;;5152285;27;20383;-84
2023/07/05 01:44:27;;;;;;;6.00;5.10;;;;;;;;;;5149859;27;20243;-84
2023/07/05 01:46:58;;;;;;;8.25;6.00;;;;;;;;;;5150965;27;20227;-83
2023/07/05 01:49:39;;;;;;;7.07;5.63;;;;;;;;;;5152133;27;20223;-83
2023/07/05 01:52:09;;;;;;;6.13;5.53;;;;;;;;;;5150524;27;20196;-85
2023/07/05 01:54:41;;;;;;;7.90;6.00;;;;;;;;;;5150300;27;20203;-84
2023/07/05 01:57:11;;;;;;;7.47;5.43;;;;;;;;;;5151453;27;20655;-84
2023/07/05 01:59:40;;;;;;;7.22;5.35;;;;;;;;;;5151336;27;20619;-84
2023/07/05 02:02:09;;;;;;;6.40;5.57;;;;;;;;;;5144336;27;20763;-83
2023/07/05 02:04:37;;;;;;;8.48;6.32;;;;;;;;;;5130258;27;20201;-83
2023/07/05 02:07:05;;;;;;;7.57;5.55;;;;;;;;;;5129214;27;20224;-83
2023/07/05 02:09:35;;;;;;;10.38;6.38;;;;;;;;;;5129649;27;20217;-83
2023/07/05 02:12:02;;;;;;;6.90;5.63;;;;;;;;;;5130651;27;20221;-83
2023/07/05 02:14:28;;;;;;;8.25;5.72;;;;;;;;;;5132057;27;20200;-83
2023/07/05 02:16:55;;;;;;;9.20;5.97;;;;;;;;;;5133469;27;20254;-83
2023/07/05 02:19:21;;;;;;;9.40;5.97;;;;;;;;;;5133535;27;20761;-83
2023/07/05 02:21:49;;;;;;;7.13;6.05;;;;;;;;;;5154380;27;20193;-81
2023/07/05 02:24:16;;;;;;;6.40;5.28;;;;;;;;;;5149871;27;20207;-85
2023/07/05 02:26:42;;;;;;;8.63;5.45;;;;;;;;;;5129772;27;20562;-83
2023/07/05 02:29:09;;;;;;;7.82;5.38;;;;;;;;;;5130127;27;20320;-84
2023/07/05 02:31:36;;;;;;;12.65;5.80;;;;;;;;;;5131255;27;20219;-82
2023/07/05 02:34:02;;;;;;;5.90;5.38;;;;;;;;;;5131094;27;20201;-83
2023/07/05 02:36:29;;;;;;;7.15;6.18;;;;;;;;;;5129428;27;20192;-85
2023/07/05 02:38:57;;;;;;;6.15;5.55;;;;;;;;;;5129439;27;20284;-83
2023/07/05 02:41:23;;;;;;;12.32;5.53;;;;;;;;;;5130361;27;20231;-84
2023/07/05 02:43:50;;;;;;;6.75;5.45;;;;;;;;;;5130194;27;20205;-83
2023/07/05 02:46:17;;;;;;;7.05;6.10;;;;;;;;;;5129488;27;20204;-83
2023/07/05 02:48:45;;;;;;;6.55;4.97;;;;;;;;;;5120907;27;20207;-83
2023/07/05 02:51:11;;;;;;;6.65;5.03;;;;;;;;;;5129792;27;20223;-84
2023/07/05 02:53:38;;;;;;;6.93;5.18;;;;;;;;;;5129919;27;20566;-83
2023/07/05 02:56:07;;;;;;;7.93;6.18;;;;;;;;;;5129957;27;20201;-84
2023/07/05 02:58:33;;;;;;;7.22;6.15;;;;;;;;;;5129746;27;20414;-83
2023/07/05 03:01:00;;;;;;;8.32;6.03;;;;;;;;;;5129213;27;20269;-84
2023/07/05 03:03:27;;;;;;;11.15;6.93;;;;;;;;;;5129488;27;20239;-84
2023/07/05 03:05:57;;;;;;;6.35;5.75;;;;;;;;;;5129099;27;20665;-83
2023/07/05 03:08:25;;;;;;;7.60;6.45;;;;;;;;;;5129677;28;20277;-83
2023/07/05 03:10:52;;;;;;;13.20;6.32;;;;;;;;;;5131406;28;20200;-83
2023/07/05 03:13:21;;;;;;;8.80;6.63;;;;;;;;;;5130031;28;20200;-84
2023/07/05 03:15:47;;;;;;;7.63;6.38;;;;;;;;;;5129961;28;20732;-85
2023/07/05 03:18:14;;;;;;;7.18;5.63;;;;;;;;;;5130189;27;20723;-84
2023/07/05 03:20:40;;;;;;;5.68;5.18;;;;;;;;;;5133197;27;20192;-84
2023/07/05 03:23:07;;;;;;;10.02;5.88;;;;;;;;;;5133447;27;20196;-84
2023/07/05 03:25:34;;;;;;;8.00;5.00;;;;;;;;;;5134336;27;20200;-84
2023/07/05 03:28:02;;;;;;;7.80;6.05;;;;;;;;;;5133373;27;20200;-84
2023/07/05 03:30:30;;;;;;;8.48;6.47;;;;;;;;;;5133564;27;20285;-85
2023/07/05 03:32:56;;;;;;;10.07;6.13;;;;;;;;;;5133759;27;20629;-84
2023/07/05 03:35:23;;;;;;;7.90;5.50;;;;;;;;;;5133485;27;20218;-85
2023/07/05 03:37:49;;;;;;;7.50;6.43;;;;;;;;;;5133888;27;20579;-84
2023/07/05 03:40:16;;;;;;;7.13;5.97;;;;;;;;;;5133894;27;20203;-83
2023/07/05 03:42:44;;;;;;;6.53;5.70;;;;;;;;;;5133311;27;20246;-83
2023/07/05 03:45:11;;;;;;;11.90;8.43;;;;;;;;;;5133312;27;20300;-85
2023/07/05 03:47:40;;;;;;;9.98;6.93;;;;;;;;;;5133218;27;20568;-85
2023/07/05 03:50:07;;;;;;;7.32;6.22;;;;;;;;;;5132183;27;20201;-82
2023/07/05 03:52:33;;;;;;;6.68;6.00;;;;;;;;;;5132294;27;20215;-84
2023/07/05 03:55:01;;;;;;;6.88;6.28;;;;;;;;;;5133342;27;20264;-85
2023/07/05 03:57:28;;;;;;;6.90;5.40;;;;;;;;;;5132943;27;20197;-83
2023/07/05 03:59:54;;;;;;;7.10;5.63;;;;;;;;;;5132063;27;20230;-85
2023/07/05 04:02:21;;;;;;;7.45;6.13;;;;;;;;;;5132942;27;20232;-84
2023/07/05 04:04:49;;;;;;;7.15;5.78;;;;;;;;;;5133474;27;20707;-83
2023/07/05 04:07:16;;;;;;;9.60;7.05;;;;;;;;;;5119641;27;20285;-83
2023/07/05 04:09:42;;;;;;;6.18;5.63;;;;;;;;;;5103570;28;20703;-83
2023/07/05 04:12:09;;;;;;;6.70;6.10;;;;;;;;;;5111925;28;20314;-82
2023/07/05 04:14:36;;;;;;;7.82;5.97;;;;;;;;;;5110511;28;20206;-83
2023/07/05 04:17:03;;;;;;;14.10;7.93;;;;;;;;;;5112217;28;20616;-84
2023/07/05 04:19:30;;;;;;;8.98;6.32;;;;;;;;;;5111494;28;20225;-82
2023/07/05 04:21:58;;;;;;;28.85;16.00;;;;;;;;;;5111632;28;20202;-84
2023/07/05 04:24:24;;;;;;;7.38;6.70;;;;;;;;;;5111449;28;20198;-84
2023/07/05 04:26:51;;;;;;;7.65;6.45;;;;;;;;;;5102348;28;20328;-83
2023/07/05 04:29:18;;;;;;;11.70;8.63;;;;;;;;;;5109810;28;20265;-82
2023/07/05 04:31:44;;;;;;;16.60;11.23;;;;;;;;;;5110518;28;20293;-82
2023/07/05 04:34:11;;;;;;;18.77;12.45;;;;;;;;;;5110788;28;20746;-83
2023/07/05 04:36:38;;;;;;;7.35;6.68;;;;;;;;;;5110885;28;20688;-83
2023/07/05 04:39:06;;;;;;;7.50;6.75;;;;;;;;;;5111198;28;20224;-83
2023/07/05 04:41:33;;;;;;;14.23;7.38;;;;;;;;;;5099197;28;20281;-84
2023/07/05 04:43:59;;;;;;;10.68;6.72;;;;;;;;;;5118897;28;20197;-84
2023/07/05 04:46:26;;;;;;;6.80;6.07;;;;;;;;;;5110448;28;20288;-84
2023/07/05 04:48:53;;;;;;;7.60;6.97;;;;;;;;;;5111160;28;20208;-83
2023/07/05 04:51:20;;;;;;;39.47;24.40;;;;;;;;;;5110536;28;20292;-82
2023/07/05 04:53:47;;;;;;;9.02;7.20;;;;;;;;;;5111009;28;20274;-82
2023/07/05 04:56:15;;;;;;;11.02;6.85;;;;;;;;;;5110336;28;20677;-83
2023/07/05 04:58:42;;;;;;;6.43;5.82;;;;;;;;;;5110677;28;20688;-83
2023/07/05 05:01:13;;;;;;;7.05;6.35;;;;;;;;;;5110463;28;20204;-82
2023/07/05 05:03:41;;;;;;;6.85;6.20;;;;;;;;;;5131516;27;20829;-83
2023/07/05 05:06:08;;;;;;;7.57;6.97;;;;;;;;;;5131212;27;20590;-83
2023/07/05 05:08:35;;;;;;;6.78;6.20;;;;;;;;;;5131915;27;20192;-84
2023/07/05 05:11:03;;;;;;;8.10;7.05;;;;;;;;;;5124787;27;20228;-85
2023/07/05 05:13:32;;;;;;;10.82;7.28;;;;;;;;;;5090772;28;20201;-85
2023/07/05 05:16:01;;;;;;;7.30;6.68;;;;;;;;;;5097126;28;20342;-83
2023/07/05 05:18:31;;;;;;;6.55;6.05;;;;;;;;;;5110276;28;20680;-84
2023/07/05 05:20:58;;;;;;;6.75;6.05;;;;;;;;;;5109317;28;20786;-84
2023/07/05 05:23:25;;;;;;;6.95;6.25;;;;;;;;;;5110003;28;20188;-84
2023/07/05 05:25:54;;;;;;;6.40;5.90;;;;;;;;;;5111379;28;20197;-85
2023/07/05 05:28:20;;;;;;;8.77;5.95;;;;;;;;;;5109991;28;20710;-84
2023/07/05 05:30:50;;;;;;;7.55;6.88;;;;;;;;;;5109413;28;20205;-84
2023/07/05 05:33:17;;;;;;;8.35;6.35;;;;;;;;;;5111207;28;20216;-84
2023/07/05 05:35:50;;;;;;;11.07;6.28;;;;;;;;;;5110258;28;20595;-85
2023/07/05 05:38:17;;;;;;;7.03;6.45;;;;;;;;;;5110473;28;20664;-84
2023/07/05 05:40:45;;;;;;;7.78;6.63;;;;;;;;;;5109826;28;20358;-85
2023/07/05 05:43:13;;;;;;;6.88;6.07;;;;;;;;;;5089969;28;20200;-84
2023/07/05 05:45:40;;;;;;;9.05;6.90;;;;;;;;;;5103612;28;20449;-85
2023/07/05 05:48:30;;;;;;;;;;;;;;;;;;;;;
2023/07/05 05:50:58;;;;;;;7.22;6.53;;;;;;;;;;5106997;28;20209;-84
2023/07/05 05:53:25;;;;;;;7.70;6.70;;;;;;;;;;5108245;28;20514;-85
2023/07/05 05:55:51;;;;;;;6.70;6.13;;;;;;;;;;5109608;28;20189;-83
2023/07/05 05:58:18;;;;;;;7.03;6.35;;;;;;;;;;5109703;28;20247;-84
2023/07/05 06:00:46;;;;;;;8.38;6.57;;;;;;;;;;5108957;28;20293;-85
2023/07/05 06:03:15;;;;;;;8.05;7.18;;;;;;;;;;5114861;27;20280;-85
2023/07/05 06:05:43;;;;;;;6.80;6.30;;;;;;;;;;5130121;27;20235;-85
2023/07/05 06:08:09;;;;;;;7.50;6.90;;;;;;;;;;5130840;27;20268;-84
2023/07/05 06:10:36;;;;;;;9.32;6.72;;;;;;;;;;5131348;27;20192;-84
2023/07/05 06:13:03;;;;;;;6.65;6.10;;;;;;;;;;5109566;28;20212;-84
2023/07/05 06:15:30;;;;;;;7.80;7.10;;;;;;;;;;5109342;28;20200;-84
2023/07/05 06:17:57;;;;;;;7.20;6.60;;;;;;;;;;5109436;28;20306;-84
2023/07/05 06:20:24;;;;;;;8.35;6.55;;;;;;;;;;5108983;28;20238;-85
2023/07/05 06:22:52;;;;;;;6.97;6.53;;;;;;;;;;5109967;28;20626;-84
2023/07/05 06:25:21;;;;;;;6.75;6.13;;;;;;;;;;5109750;28;20229;-85
2023/07/05 06:27:48;;;;;;;7.30;6.60;;;;;;;;;;5111231;28;20208;-84
2023/07/05 06:30:15;;;;;;;6.60;6.00;;;;;;;;;;5112248;28;20193;-85
2023/07/05 06:32:43;;;;;;;7.50;6.80;;;;;;;;;;5114032;28;20205;-85
2023/07/05 06:35:10;;;;;;;7.25;6.65;;;;;;;;;;5131995;28;20256;-86
2023/07/05 06:37:37;;;;;;;8.38;6.65;;;;;;;;;;5130348;28;20196;-84
2023/07/05 06:40:06;;;;;;;7.40;6.63;;;;;;;;;;5111118;28;20665;-85
2023/07/05 06:42:35;;;;;;;7.03;6.30;;;;;;;;;;5109734;28;20211;-84
2023/07/05 06:45:01;;;;;;;6.32;5.93;;;;;;;;;;5109252;28;20321;-84
2023/07/05 06:47:28;;;;;;;7.07;6.35;;;;;;;;;;5110007;28;20205;-85
2023/07/05 06:49:54;;;;;;;7.13;6.43;;;;;;;;;;5119816;27;20277;-85
2023/07/05 06:52:21;;;;;;;9.25;6.13;;;;;;;;;;5130178;27;20200;-85
2023/07/05 06:54:48;;;;;;;7.80;6.55;;;;;;;;;;5129037;27;20234;-84
2023/07/05 06:57:16;;;;;;;7.00;6.38;;;;;;;;;;5129493;27;20269;-83
2023/07/05 06:59:44;;;;;;;8.20;6.25;;;;;;;;;;5127994;27;20327;-86
2023/07/05 07:02:10;;;;;;;6.95;5.82;;;;;;;;;;5129493;27;20339;-83
2023/07/05 07:04:39;;;;;;;10.05;5.68;;;;;;;;;;5128486;27;20211;-85
2023/07/05 07:07:07;;;;;;;6.45;5.85;;;;;;;;;;5128861;27;20192;-86
2023/07/05 07:09:34;;;;;;;6.63;6.03;;;;;;;;;;5128975;28;20215;-84
2023/07/05 07:12:04;;;;;;;6.65;6.15;;;;;;;;;;5128826;28;20282;-85
2023/07/05 07:14:33;;;;;;;6.13;5.47;;;;;;;;;;5128490;28;20306;-85
2023/07/05 07:17:02;;;;;;;7.25;6.55;;;;;;;;;;5129100;28;20298;-85
2023/07/05 07:19:31;;;;;;;6.22;5.75;;;;;;;;;;5128611;28;20228;-83
2023/07/05 07:21:57;;;;;;;6.82;6.20;;;;;;;;;;5128100;28;20707;-84
2023/07/05 07:24:28;;;;;;;6.18;5.68;;;;;;;;;;5129178;28;20261;-84
2023/07/05 07:26:55;;;;;;;5.78;5.28;;;;;;;;;;5127116;28;20224;-83
2023/07/05 07:29:22;;;;;;;6.65;6.15;;;;;;;;;;5127550;28;20196;-84
2023/07/05 07:31:50;;;;;;;9.77;5.60;;;;;;;;;;5129425;28;20249;-83
2023/07/05 07:34:19;;;;;;;5.65;5.20;;;;;;;;;;5115523;27;20307;-83
2023/07/05 07:36:46;;;;;;;6.82;6.15;;;;;;;;;;5127697;28;20224;-83
2023/07/05 07:39:17;;;;;;;6.25;5.65;;;;;;;;;;5127653;28;20231;-86
2023/07/05 07:41:44;;;;;;;6.63;6.07;;;;;;;;;;5123669;27;20303;-84
2023/07/05 07:44:11;;;;;;;6.28;5.72;;;;;;;;;;5117831;28;20224;-83
2023/07/05 07:46:39;;;;;;;6.13;5.72;;;;;;;;;;5128508;28;20224;-83
2023/07/05 07:49:09;;;;;;;6.32;5.75;;;;;;;;;;5126222;28;20228;-85
2023/07/05 07:51:37;;;;;;;6.50;5.90;;;;;;;;;;5128116;28;20645;-85
2023/07/05 07:54:05;;;;;;;5.75;5.35;;;;;;;;;;5128041;28;20227;-85
2023/07/05 07:56:31;;;;;;;6.05;5.55;;;;;;;;;;5127034;28;20231;-84
2023/07/05 07:58:58;;;;;;;5.82;5.40;;;;;;;;;;5126762;28;20315;-84
2023/07/05 08:01:26;;;;;;;6.97;6.35;;;;;;;;;;5127154;27;20684;-85
2023/07/05 08:03:53;;;;;;;7.53;6.30;;;;;;;;;;5127938;28;20216;-85
2023/07/05 08:06:21;;;;;;;6.78;6.18;;;;;;;;;;5129104;27;20238;-84
2023/07/05 08:08:48;;;;;;;7.45;6.50;;;;;;;;;;5131720;27;20223;-85
2023/07/05 08:11:15;;;;;;;6.32;5.82;;;;;;;;;;5125066;27;20213;-85
2023/07/05 08:13:44;;;;;;;6.38;5.80;;;;;;;;;;5110332;28;20233;-85
2023/07/05 08:16:10;;;;;;;5.35;5.05;;;;;;;;;;5124999;27;20232;-85
2023/07/05 08:18:37;;;;;;;7.05;5.70;;;;;;;;;;5141761;27;20305;-83
2023/07/05 08:21:04;;;;;;;6.60;6.00;;;;;;;;;;5149219;27;20572;-84
2023/07/05 08:23:32;;;;;;;6.97;5.22;;;;;;;;;;5131590;27;20293;-81
2023/07/05 08:26:00;;;;;;;9.20;5.68;;;;;;;;;;5130730;27;20231;-83
2023/07/05 08:28:27;;;;;;;6.18;5.68;;;;;;;;;;5131022;27;20564;-82
2023/07/05 08:30:55;;;;;;;5.68;5.32;;;;;;;;;;5131011;27;20285;-84
2023/07/05 08:33:22;;;;;;;5.85;5.45;;;;;;;;;;5130436;27;20220;-84
2023/07/05 08:35:49;;;;;;;5.78;5.18;;;;;;;;;;5131545;27;20265;-83
2023/07/05 08:38:18;;;;;;;5.80;5.38;;;;;;;;;;5131436;27;20705;-85
2023/07/05 08:40:51;;;;;;;5.95;5.50;;;;;;;;;;5129466;27;20250;-84
2023/07/05 08:43:25;;;;;;;8.85;5.85;;;;;;;;;;5126957;27;20327;-83
2023/07/05 08:45:55;;;;;;;11.10;5.75;;;;;;;;;;5131762;27;20326;-82
2023/07/05 08:48:22;;;;;;;5.57;5.18;;;;;;;;;;5130087;27;20251;-84
2023/07/05 08:50:51;;;;;;;5.53;5.22;;;;;;;;;;5131005;27;20368;-84
2023/07/05 08:53:20;;;;;;;6.80;5.38;;;;;;;;;;5131063;27;20227;-83
2023/07/05 08:55:53;;;;;;;5.50;4.97;;;;;;;;;;5129975;27;20329;-84
2023/07/05 08:58:21;;;;;;;11.13;4.88;;;;;;;;;;5129098;27;20239;-84
2023/07/05 09:00:51;;;;;;;5.65;5.22;;;;;;;;;;5131254;27;20224;-84
2023/07/05 09:03:18;;;;;;;8.18;4.93;;;;;;;;;;5128592;27;20236;-85
2023/07/05 09:05:48;;;;;;;6.18;5.57;;;;;;;;;;5130624;27;20647;-84
2023/07/05 09:08:20;;;;;;;6.07;5.57;;;;;;;;;;5130397;27;20620;-83
2023/07/05 09:10:51;;;;;;;5.30;4.90;;;;;;;;;;5131919;27;20679;-83
2023/07/05 09:13:24;;;;;;;8.50;4.70;;;;;;;;;;5129571;27;20684;-83
2023/07/05 09:15:57;;;;;;;10.32;5.53;;;;;;;;;;5131039;27;20261;-83
2023/07/05 09:18:31;;;;;;;6.72;6.03;;;;;;;;;;5120696;27;20248;-86
2023/07/05 09:21:05;;;;;;;6.53;5.40;;;;;;;;;;5110204;28;20243;-85
2023/07/05 09:23:34;;;;;;;6.22;5.63;;;;;;;;;;5109218;28;20225;-84
2023/07/05 09:26:05;;;;;;;6.75;5.43;;;;;;;;;;5109695;28;20277;-83
2023/07/05 09:28:36;;;;;;;6.70;5.70;;;;;;;;;;5109428;28;20225;-84
2023/07/05 09:31:09;;;;;;;6.65;6.05;;;;;;;;;;5109876;28;20240;-84
2023/07/05 09:33:38;;;;;;;5.47;4.82;;;;;;;;;;5112991;27;20651;-83
2023/07/05 09:36:10;;;;;;;7.13;5.50;;;;;;;;;;5130329;27;20680;-84
2023/07/05 09:38:39;;;;;;;6.22;5.63;;;;;;;;;;5129168;27;20307;-85
2023/07/05 09:41:07;;;;;;;5.68;5.05;;;;;;;;;;5129326;27;20240;-85
2023/07/05 09:43:36;;;;;;;5.20;4.70;;;;;;;;;;5128741;27;20235;-85
2023/07/05 09:46:05;;;;;;;4.53;3.97;;;;;;;;;;5129997;27;20308;-86
2023/07/05 09:48:36;;;;;;;6.28;5.28;;;;;;;;;;5119272;27;20225;-86
2023/07/05 09:51:03;;;;;;;6.50;4.88;;;;;;;;;;5110390;27;20411;-84
2023/07/05 09:53:45;;;;;;;5.75;5.25;;;;;;;;;;5129264;27;20235;-86
2023/07/05 09:56:13;;;;;;;5.55;5.05;;;;;;;;;;5117693;27;20241;-85
2023/07/05 09:58:43;;;;;;;9.13;4.78;;;;;;;;;;5108938;28;20232;-86
2023/07/05 10:01:14;;;;;;;4.82;4.35;;;;;;;;;;5108696;28;20229;-85
2023/07/05 10:03:45;;;;;;;4.72;4.30;;;;;;;;;;5107987;28;20775;-85
2023/07/05 10:06:12;;;;;;;5.78;5.30;;;;;;;;;;5109046;28;20225;-86
2023/07/05 10:08:45;;;;;;;4.95;4.50;;;;;;;;;;5107656;28;20221;-83
2023/07/05 10:11:26;;;;;;;5.60;5.10;;;;;;;;;;5108470;28;20322;-86
2023/07/05 10:14:12;;;;;;;6.15;5.65;;;;;;;;;;5108974;28;20244;-85
2023/07/05 10:16:48;;;;;;;4.88;4.47;;;;;;;;;;5098319;28;20610;-87
2023/07/05 10:19:25;;;;;;;4.68;4.28;;;;;;;;;;5109066;28;20229;-85
2023/07/05 10:21:57;;;;;;;4.97;4.45;;;;;;;;;;5108449;28;20661;-83
2023/07/05 10:24:24;;;;;;;4.85;4.53;;;;;;;;;;5111095;28;20225;-83
2023/07/05 10:26:52;;;;;;;5.15;4.75;;;;;;;;;;5115465;28;20283;-85
2023/07/05 10:29:21;;;;;;;6.63;4.68;;;;;;;;;;5108953;28;20225;-83
2023/07/05 10:31:53;;;;;;;5.47;5.07;;;;;;;;;;5107738;28;20240;-82
2023/07/05 10:34:21;;;;;;;5.40;4.90;;;;;;;;;;5108072;28;20245;-83
2023/07/05 10:36:48;;;;;;;6.32;5.13;;;;;;;;;;5107971;28;20623;-84
2023/07/05 10:39:17;;;;;;;7.03;4.88;;;;;;;;;;5106711;28;20245;-83
2023/07/05 10:41:44;;;;;;;5.55;5.05;;;;;;;;;;5108770;28;20297;-83
2023/07/05 10:44:14;;;;;;;5.00;4.60;;;;;;;;;;5107187;27;20233;-84
2023/07/05 10:46:41;;;;;;;5.40;4.93;;;;;;;;;;5128545;27;20240;-85
2023/07/05 10:49:13;;;;;;;5.47;4.97;;;;;;;;;;5105483;27;20237;-86
2023/07/05 10:51:42;;;;;;;4.78;4.38;;;;;;;;;;5108233;28;20705;-85
2023/07/05 10:54:14;;;;;;;5.13;4.75;;;;;;;;;;5108129;28;20252;-85
2023/07/05 10:56:42;;;;;;;6.95;5.18;;;;;;;;;;5107204;28;20217;-83
2023/07/05 10:59:14;;;;;;;5.47;5.07;;;;;;;;;;5107359;28;20883;-85
2023/07/05 11:01:43;;;;;;;5.05;4.65;;;;;;;;;;5106144;28;20244;-85
2023/07/05 11:04:13;;;;;;;5.40;4.82;;;;;;;;;;5087409;28;20696;-84
2023/07/05 11:06:41;;;;;;;5.22;4.88;;;;;;;;;;5087612;28;20267;-85
2023/07/05 11:09:10;;;;;;;5.68;5.18;;;;;;;;;;5087230;28;20222;-86
2023/07/05 11:11:40;;;;;;;5.88;5.28;;;;;;;;;;5086560;28;20221;-84
2023/07/05 11:14:12;;;;;;;4.30;3.90;;;;;;;;;;5087348;28;20226;-83
2023/07/05 11:16:39;;;;;;;4.95;4.57;;;;;;;;;;5086958;28;20565;-84
2023/07/05 11:19:09;;;;;;;6.68;5.30;;;;;;;;;;5102191;28;20229;-84
2023/07/05 11:21:44;;;;;;;5.22;4.80;;;;;;;;;;5107053;28;20263;-84
2023/07/05 11:24:11;;;;;;;5.47;4.95;;;;;;;;;;5108360;28;20379;-86
2023/07/05 11:26:39;;;;;;;7.18;5.13;;;;;;;;;;5107219;28;20231;-85
2023/07/05 11:29:24;;;;;;;5.28;4.78;;;;;;;;;;5107862;28;20271;-85
2023/07/05 11:31:58;;;;;;;4.68;4.32;;;;;;;;;;5093512;28;20681;-85
2023/07/05 11:34:41;;;;;;;5.63;3.85;;;;;;;;;;5106492;28;20658;-86
2023/07/05 11:37:26;;;;;;;3.30;3.20;;;;;;;;;;5108269;28;20224;-86
2023/07/05 11:39:54;;;;;;;6.20;4.45;;;;;;;;;;5106735;28;20316;-83
2023/07/05 11:42:39;;;;;;;5.00;3.33;;;;;;;;;;5110911;28;20241;-83
2023/07/05 11:45:23;;;;;;;3.80;3.50;;;;;;;;;;5109521;28;20282;-88
2023/07/05 11:47:51;;;;;;;3.58;3.28;;;;;;;;;;5110751;28;20225;-83
2023/07/05 11:50:22;;;;;;;4.55;4.25;;;;;;;;;;5097112;28;20280;-85
2023/07/05 11:52:51;;;;;;;5.28;3.85;;;;;;;;;;5090410;28;20276;-83
2023/07/05 11:55:23;;;;;;;4.22;3.83;;;;;;;;;;5088447;28;20218;-84
2023/07/05 11:57:53;;;;;;;3.30;3.00;;;;;;;;;;5091620;28;20229;-84
2023/07/05 12:00:23;;;;;;;3.65;3.45;;;;;;;;;;5089627;28;20369;-85
2023/07/05 12:02:53;;;;;;;7.53;3.03;;;;;;;;;;5102352;28;20277;-86
2023/07/05 12:05:21;;;;;;;8.38;3.38;;;;;;;;;;5110235;28;20857;-87
2023/07/05 12:07:50;;;;;;;10.93;2.60;;;;;;;;;;5109060;28;20767;-86
2023/07/05 12:10:25;;;;;;;3.28;2.97;;;;;;;;;;5109238;28;20225;-84
2023/07/05 12:12:51;;;;;;;7.00;2.95;;;;;;;;;;5110206;28;20271;-83
2023/07/05 12:15:19;;;;;;;3.72;3.13;;;;;;;;;;5109649;28;20233;-85
2023/07/05 12:17:46;;;;;;;5.05;2.50;;;;;;;;;;5112642;28;20229;-84
2023/07/05 12:20:23;;;;;;;5.95;2.97;;;;;;;;;;5111389;28;20738;-83
2023/07/05 12:22:50;;;;;;;3.50;2.72;;;;;;;;;;5112631;28;20229;-83
2023/07/05 12:25:17;;;;;;;5.60;2.63;;;;;;;;;;5109962;28;20225;-83
2023/07/05 12:27:46;;;;;;;3.60;3.28;;;;;;;;;;5109080;28;20716;-84
2023/07/05 12:30:18;;;;;;;3.03;2.83;;;;;;;;;;5109725;28;20674;-84
2023/07/05 12:32:48;;;;;;;3.40;2.90;;;;;;;;;;5110560;28;20290;-85
2023/07/05 12:35:16;;;;;;;3.40;3.10;;;;;;;;;;5109359;28;20229;-84
2023/07/05 12:37:44;;;;;;;5.88;4.03;;;;;;;;;;5109291;28;20300;-84
2023/07/05 12:40:12;;;;;;;3.83;3.53;;;;;;;;;;5109046;28;20240;-85
2023/07/05 12:42:48;;;;;;;3.60;3.40;;;;;;;;;;5108457;28;20233;-83
2023/07/05 12:45:16;;;;;;;3.60;3.30;;;;;;;;;;5108163;28;20315;-83
2023/07/05 12:47:43;;;;;;;4.10;3.72;;;;;;;;;;5110902;27;20220;-80
2023/07/05 12:50:10;;;;;;;4.18;3.85;;;;;;;;;;5127469;27;20224;-81
2023/07/05 12:52:37;;;;;;;5.32;4.25;;;;;;;;;;5127412;27;20228;-82
2023/07/05 12:55:03;;;;;;;5.13;3.90;;;;;;;;;;5127854;27;20692;-84
2023/07/05 12:57:33;;;;;;;5.68;4.30;;;;;;;;;;5127933;27;20224;-83
2023/07/05 13:00:04;;;;;;;4.80;3.70;;;;;;;;;;5128195;27;20271;-85
2023/07/05 13:02:32;;;;;;;4.70;4.22;;;;;;;;;;5128003;27;20246;-84
2023/07/05 13:04:59;;;;;;;5.18;4.70;;;;;;;;;;5128366;27;20331;-84
2023/07/05 13:07:26;;;;;;;4.93;4.50;;;;;;;;;;5126993;27;20267;-85
2023/07/05 13:10:00;;;;;;;4.32;4.03;;;;;;;;;;5127740;27;20645;-83
2023/07/05 13:12:43;;;;;;;5.47;4.38;;;;;;;;;;5127916;27;20627;-83
2023/07/05 13:15:12;;;;;;;4.88;4.07;;;;;;;;;;5134142;27;20255;-83
2023/07/05 13:17:39;;;;;;;6.15;4.78;;;;;;;;;;5126919;27;20296;-84
2023/07/05 13:20:18;;;;;;;4.72;4.28;;;;;;;;;;5089286;28;20229;-84
2023/07/05 13:22:48;;;;;;;4.75;4.18;;;;;;;;;;5080293;28;20256;-86
2023/07/05 13:25:33;;;;;;;5.93;5.32;;;;;;;;;;5089854;28;20804;-84
2023/07/05 13:28:00;;;;;;;5.68;5.15;;;;;;;;;;5088880;28;20254;-85
2023/07/05 13:30:32;;;;;;;5.63;5.03;;;;;;;;;;5095072;28;20226;-86
2023/07/05 13:32:59;;;;;;;6.10;4.70;;;;;;;;;;5097649;28;20214;-86
2023/07/05 13:35:30;;;;;;;5.25;4.75;;;;;;;;;;5095533;28;20256;-86
2023/07/05 13:37:57;;;;;;;7.03;4.85;;;;;;;;;;5095943;28;20229;-86
2023/07/05 13:40:25;;;;;;;8.00;5.40;;;;;;;;;;5094206;28;20218;-85
2023/07/05 13:42:53;;;;;;;5.45;5.05;;;;;;;;;;5091549;28;20288;-86
2023/07/05 13:45:22;;;;;;;5.55;4.90;;;;;;;;;;5094765;28;20248;-85
2023/07/05 13:47:51;;;;;;;4.90;4.57;;;;;;;;;;5103276;28;20229;-87
2023/07/05 13:50:19;;;;;;;6.40;5.53;;;;;;;;;;5111531;28;20281;-86
2023/07/05 13:52:47;;;;;;;7.45;4.70;;;;;;;;;;5111287;28;20309;-85
2023/07/05 13:55:18;;;;;;;6.55;4.55;;;;;;;;;;5112234;28;20254;-85
2023/07/05 13:57:52;;;;;;;10.05;5.15;;;;;;;;;;5113521;28;20217;-85
2023/07/05 14:00:19;;;;;;;10.75;4.65;;;;;;;;;;5115064;28;20552;-87
2023/07/05 14:02:48;;;;;;;6.03;5.40;;;;;;;;;;5124186;27;20339;-87
2023/07/05 14:05:18;;;;;;;6.55;5.20;;;;;;;;;;5133936;27;20303;-87
2023/07/05 14:07:45;;;;;;;6.55;5.32;;;;;;;;;;5132627;27;20228;-85
2023/07/05 14:10:17;;;;;;;6.05;5.45;;;;;;;;;;5133470;27;20263;-86
2023/07/05 14:12:45;;;;;;;8.13;5.07;;;;;;;;;;5132882;27;20273;-85
2023/07/05 14:15:26;;;;;;;6.53;5.45;;;;;;;;;;5133013;27;20229;-85
2023/07/05 14:17:54;;;;;;;5.95;5.15;;;;;;;;;;5148528;27;20269;-86
2023/07/05 14:20:26;;;;;;;10.15;5.47;;;;;;;;;;5145035;27;20464;-89
2023/07/05 14:22:56;;;;;;;7.65;4.95;;;;;;;;;;5132581;27;20244;-85
2023/07/05 14:25:23;;;;;;;8.23;4.53;;;;;;;;;;5133244;27;20247;-88
2023/07/05 14:27:51;;;;;;;5.63;5.03;;;;;;;;;;5131615;27;20227;-86
2023/07/05 14:30:18;;;;;;;7.60;5.30;;;;;;;;;;5129048;27;20315;-84
2023/07/05 14:32:45;;;;;;;5.65;5.07;;;;;;;;;;5130666;27;20288;-86
2023/07/05 14:35:16;;;;;;;6.03;5.53;;;;;;;;;;5128943;27;20277;-87
2023/07/05 14:37:48;;;;;;;6.40;4.38;;;;;;;;;;5128919;27;20750;-86
2023/07/05 14:40:15;;;;;;;4.30;4.03;;;;;;;;;;5130116;27;20300;-86
2023/07/05 14:42:42;;;;;;;6.22;5.03;;;;;;;;;;5131701;27;20713;-85
2023/07/05 14:45:15;;;;;;;5.50;4.97;;;;;;;;;;5130882;27;20673;-86
2023/07/05 14:47:42;;;;;;;4.82;4.53;;;;;;;;;;5131780;27;20223;-85
2023/07/05 14:50:14;;;;;;;6.68;5.22;;;;;;;;;;5130236;27;20254;-85
2023/07/05 14:52:41;;;;;;;5.57;5.03;;;;;;;;;;5130371;27;20240;-86
2023/07/05 14:55:16;;;;;;;5.85;5.20;;;;;;;;;;5133324;27;20288;-84